sensor_id;sensor_type;location;lat;lon;timestamp;P1;durP1;ratioP1;P2;durP2;ratioP2
64669;SDS011;51080;51.690;5.174;2022-07-03T00:02:37;7.30;;;4.60;;
64669;SDS011;51080;51.690;5.174;2022-07-03T00:08:21;6.50;;;4.70;;
64669;SDS011;51080;51.690;5.174;2022-07-03T00:14:35;7.10;;;4.00;;
64669;SDS011;51080;51.690;5.174;2022-07-03T00:20:20;8.60;;;3.90;;
64669;SDS011;51080;51.690;5.174;2022-07-03T00:26:05;9.30;;;4.40;;
64669;SDS011;51080;51.690;5.174;2022-07-03T00:31:49;11.90;;;4.10;;
64669;SDS011;51080;51.690;5.174;2022-07-03T00:37:33;7.50;;;4.10;;
64669;SDS011;51080;51.690;5.174;2022-07-03T00:43:17;6.40;;;4.00;;
64669;SDS011;51080;51.690;5.174;2022-07-03T00:49:03;5.60;;;4.10;;
64669;SDS011;51080;51.690;5.174;2022-07-03T00:54:56;9.10;;;5.40;;
64669;SDS011;51080;51.690;5.174;2022-07-03T01:00:42;7.80;;;5.60;;
64669;SDS011;51080;51.690;5.174;2022-07-03T01:06:28;9.60;;;5.90;;
64669;SDS011;51080;51.690;5.174;2022-07-03T01:18:35;8.20;;;6.60;;
64669;SDS011;51080;51.690;5.174;2022-07-03T01:31:38;0.00;;;0.00;;
64669;SDS011;51080;51.690;5.174;2022-07-03T01:37:54;0.00;;;0.00;;
64669;SDS011;51080;51.690;5.174;2022-07-03T01:44:09;0.00;;;0.00;;
64669;SDS011;51080;51.690;5.174;2022-07-03T01:50:28;0.00;;;0.00;;
64669;SDS011;51080;51.690;5.174;2022-07-03T01:56:43;0.00;;;0.00;;
64669;SDS011;51080;51.690;5.174;2022-07-03T02:03:02;0.00;;;0.00;;
64669;SDS011;51080;51.690;5.174;2022-07-03T02:09:19;0.00;;;0.00;;
64669;SDS011;51080;51.690;5.174;2022-07-03T02:15:39;0.00;;;0.00;;
64669;SDS011;51080;51.690;5.174;2022-07-03T02:21:57;0.00;;;0.00;;
64669;SDS011;51080;51.690;5.174;2022-07-03T02:34:42;0.00;;;0.00;;
64669;SDS011;51080;51.690;5.174;2022-07-03T02:41:10;0.00;;;0.00;;
64669;SDS011;51080;51.690;5.174;2022-07-03T02:47:36;0.00;;;0.00;;
64669;SDS011;51080;51.690;5.174;2022-07-03T02:54:02;0.00;;;0.00;;
64669;SDS011;51080;51.690;5.174;2022-07-03T03:00:23;0.00;;;0.00;;
64669;SDS011;51080;51.690;5.174;2022-07-03T03:06:38;0.00;;;0.00;;
64669;SDS011;51080;51.690;5.174;2022-07-03T03:13:05;0.00;;;0.00;;
64669;SDS011;51080;51.690;5.174;2022-07-03T03:19:23;0.00;;;0.00;;
64669;SDS011;51080;51.690;5.174;2022-07-03T03:25:38;0.00;;;0.00;;
64669;SDS011;51080;51.690;5.174;2022-07-03T03:31:53;0.00;;;0.00;;
64669;SDS011;51080;51.690;5.174;2022-07-03T03:38:06;0.00;;;0.00;;
64669;SDS011;51080;51.690;5.174;2022-07-03T03:44:20;0.00;;;0.00;;
64669;SDS011;51080;51.690;5.174;2022-07-03T03:50:34;0.00;;;0.00;;
64669;SDS011;51080;51.690;5.174;2022-07-03T03:56:48;0.00;;;0.00;;
64669;SDS011;51080;51.690;5.174;2022-07-03T04:03:03;0.00;;;0.00;;
64669;SDS011;51080;51.690;5.174;2022-07-03T04:09:18;0.00;;;0.00;;
64669;SDS011;51080;51.690;5.174;2022-07-03T04:15:33;0.00;;;0.00;;
64669;SDS011;51080;51.690;5.174;2022-07-03T04:21:47;0.00;;;0.00;;
64669;SDS011;51080;51.690;5.174;2022-07-03T04:28:03;0.00;;;0.00;;
64669;SDS011;51080;51.690;5.174;2022-07-03T04:34:17;0.00;;;0.00;;
64669;SDS011;51080;51.690;5.174;2022-07-03T04:40:30;0.00;;;0.00;;
64669;SDS011;51080;51.690;5.174;2022-07-03T04:46:44;0.00;;;0.00;;
64669;SDS011;51080;51.690;5.174;2022-07-03T04:52:58;0.00;;;0.00;;
64669;SDS011;51080;51.690;5.174;2022-07-03T04:59:11;0.00;;;0.00;;
64669;SDS011;51080;51.690;5.174;2022-07-03T05:05:26;0.00;;;0.00;;
64669;SDS011;51080;51.690;5.174;2022-07-03T05:11:41;0.00;;;0.00;;
64669;SDS011;51080;51.690;5.174;2022-07-03T05:17:56;0.00;;;0.00;;
64669;SDS011;51080;51.690;5.174;2022-07-03T05:24:10;0.00;;;0.00;;
64669;SDS011;51080;51.690;5.174;2022-07-03T05:30:25;0.00;;;0.00;;
64669;SDS011;51080;51.690;5.174;2022-07-03T05:36:40;0.00;;;0.00;;
64669;SDS011;51080;51.690;5.174;2022-07-03T05:42:55;0.00;;;0.00;;
64669;SDS011;51080;51.690;5.174;2022-07-03T05:49:09;0.00;;;0.00;;
64669;SDS011;51080;51.690;5.174;2022-07-03T05:55:24;0.00;;;0.00;;
64669;SDS011;51080;51.690;5.174;2022-07-03T06:01:40;0.00;;;0.00;;
64669;SDS011;51080;51.690;5.174;2022-07-03T06:07:55;0.00;;;0.00;;
64669;SDS011;51080;51.690;5.174;2022-07-03T06:14:09;0.00;;;0.00;;
64669;SDS011;51080;51.690;5.174;2022-07-03T06:20:24;0.00;;;0.00;;
64669;SDS011;51080;51.690;5.174;2022-07-03T06:26:39;0.00;;;0.00;;
64669;SDS011;51080;51.690;5.174;2022-07-03T06:32:59;0.00;;;0.00;;
64669;SDS011;51080;51.690;5.174;2022-07-03T06:39:12;0.00;;;0.00;;
64669;SDS011;51080;51.690;5.174;2022-07-03T06:45:27;0.00;;;0.00;;
64669;SDS011;51080;51.690;5.174;2022-07-03T06:51:42;0.00;;;0.00;;
64669;SDS011;51080;51.690;5.174;2022-07-03T06:57:57;0.00;;;0.00;;
64669;SDS011;51080;51.690;5.174;2022-07-03T07:04:12;0.00;;;0.00;;
64669;SDS011;51080;51.690;5.174;2022-07-03T07:10:26;0.00;;;0.00;;
64669;SDS011;51080;51.690;5.174;2022-07-03T07:16:41;0.00;;;0.00;;
64669;SDS011;51080;51.690;5.174;2022-07-03T07:22:55;0.00;;;0.00;;
64669;SDS011;51080;51.690;5.174;2022-07-03T07:29:12;0.00;;;0.00;;
64669;SDS011;51080;51.690;5.174;2022-07-03T07:35:27;0.00;;;0.00;;
64669;SDS011;51080;51.690;5.174;2022-07-03T07:41:42;0.00;;;0.00;;
64669;SDS011;51080;51.690;5.174;2022-07-03T07:47:57;0.00;;;0.00;;
64669;SDS011;51080;51.690;5.174;2022-07-03T07:54:12;0.00;;;0.00;;
64669;SDS011;51080;51.690;5.174;2022-07-03T08:00:27;0.00;;;0.00;;
64669;SDS011;51080;51.690;5.174;2022-07-03T08:06:41;0.00;;;0.00;;
64669;SDS011;51080;51.690;5.174;2022-07-03T08:12:56;0.00;;;0.00;;
64669;SDS011;51080;51.690;5.174;2022-07-03T08:19:09;0.00;;;0.00;;
64669;SDS011;51080;51.690;5.174;2022-07-03T08:25:24;0.00;;;0.00;;
64669;SDS011;51080;51.690;5.174;2022-07-03T08:31:38;0.00;;;0.00;;
64669;SDS011;51080;51.690;5.174;2022-07-03T08:37:52;0.00;;;0.00;;
64669;SDS011;51080;51.690;5.174;2022-07-03T08:44:07;0.00;;;0.00;;
64669;SDS011;51080;51.690;5.174;2022-07-03T08:50:35;0.00;;;0.00;;
64669;SDS011;51080;51.690;5.174;2022-07-03T08:56:55;0.00;;;0.00;;
64669;SDS011;51080;51.690;5.174;2022-07-03T09:03:11;0.00;;;0.00;;
64669;SDS011;51080;51.690;5.174;2022-07-03T09:09:27;0.00;;;0.00;;
64669;SDS011;51080;51.690;5.174;2022-07-03T09:15:42;0.00;;;0.00;;
64669;SDS011;51080;51.690;5.174;2022-07-03T09:21:57;0.00;;;0.00;;
64669;SDS011;51080;51.690;5.174;2022-07-03T09:28:12;0.00;;;0.00;;
64669;SDS011;51080;51.690;5.174;2022-07-03T09:34:27;0.00;;;0.00;;
64669;SDS011;51080;51.690;5.174;2022-07-03T09:40:47;0.00;;;0.00;;
64669;SDS011;51080;51.690;5.174;2022-07-03T09:47:19;0.00;;;0.00;;
64669;SDS011;51080;51.690;5.174;2022-07-03T09:53:43;0.00;;;0.00;;
64669;SDS011;51080;51.690;5.174;2022-07-03T10:00:21;0.00;;;0.00;;
64669;SDS011;51080;51.690;5.174;2022-07-03T10:06:53;0.00;;;0.00;;
64669;SDS011;51080;51.690;5.174;2022-07-03T10:13:10;0.00;;;0.00;;
64669;SDS011;51080;51.690;5.174;2022-07-03T10:26:21;0.00;;;0.00;;
64669;SDS011;51080;51.690;5.174;2022-07-03T10:32:42;0.00;;;0.00;;
64669;SDS011;51080;51.690;5.174;2022-07-03T10:38:58;0.00;;;0.00;;
64669;SDS011;51080;51.690;5.174;2022-07-03T10:45:19;0.00;;;0.00;;
64669;SDS011;51080;51.690;5.174;2022-07-03T10:58:08;0.00;;;0.00;;
64669;SDS011;51080;51.690;5.174;2022-07-03T11:04:26;0.00;;;0.00;;
64669;SDS011;51080;51.690;5.174;2022-07-03T11:11:13;0.00;;;0.00;;
64669;SDS011;51080;51.690;5.174;2022-07-03T11:18:06;0.00;;;0.00;;
64669;SDS011;51080;51.690;5.174;2022-07-03T11:24:27;0.00;;;0.00;;
64669;SDS011;51080;51.690;5.174;2022-07-03T11:37:31;0.00;;;0.00;;
64669;SDS011;51080;51.690;5.174;2022-07-03T11:43:49;0.00;;;0.00;;
64669;SDS011;51080;51.690;5.174;2022-07-03T11:50:05;0.00;;;0.00;;
64669;SDS011;51080;51.690;5.174;2022-07-03T11:56:19;0.00;;;0.00;;
64669;SDS011;51080;51.690;5.174;2022-07-03T12:02:32;0.00;;;0.00;;
64669;SDS011;51080;51.690;5.174;2022-07-03T12:08:46;0.00;;;0.00;;
64669;SDS011;51080;51.690;5.174;2022-07-03T12:15:01;0.00;;;0.00;;
64669;SDS011;51080;51.690;5.174;2022-07-03T12:21:18;0.00;;;0.00;;
64669;SDS011;51080;51.690;5.174;2022-07-03T12:27:40;0.00;;;0.00;;
64669;SDS011;51080;51.690;5.174;2022-07-03T12:33:59;0.00;;;0.00;;
64669;SDS011;51080;51.690;5.174;2022-07-03T12:40:14;0.00;;;0.00;;
64669;SDS011;51080;51.690;5.174;2022-07-03T12:46:35;0.00;;;0.00;;
64669;SDS011;51080;51.690;5.174;2022-07-03T12:52:51;0.00;;;0.00;;
64669;SDS011;51080;51.690;5.174;2022-07-03T12:59:27;0.00;;;0.00;;
64669;SDS011;51080;51.690;5.174;2022-07-03T13:05:45;0.00;;;0.00;;
64669;SDS011;51080;51.690;5.174;2022-07-03T13:12:03;0.00;;;0.00;;
64669;SDS011;51080;51.690;5.174;2022-07-03T13:18:21;0.00;;;0.00;;
64669;SDS011;51080;51.690;5.174;2022-07-03T13:24:38;0.00;;;0.00;;
64669;SDS011;51080;51.690;5.174;2022-07-03T13:30:56;0.00;;;0.00;;
64669;SDS011;51080;51.690;5.174;2022-07-03T13:37:09;0.00;;;0.00;;
64669;SDS011;51080;51.690;5.174;2022-07-03T13:43:23;0.00;;;0.00;;
64669;SDS011;51080;51.690;5.174;2022-07-03T13:49:38;0.00;;;0.00;;
64669;SDS011;51080;51.690;5.174;2022-07-03T13:55:55;0.00;;;0.00;;
64669;SDS011;51080;51.690;5.174;2022-07-03T14:02:12;0.00;;;0.00;;
64669;SDS011;51080;51.690;5.174;2022-07-03T14:08:29;0.00;;;0.00;;
64669;SDS011;51080;51.690;5.174;2022-07-03T14:14:47;0.00;;;0.00;;
64669;SDS011;51080;51.690;5.174;2022-07-03T14:21:07;0.00;;;0.00;;
64669;SDS011;51080;51.690;5.174;2022-07-03T14:27:24;0.00;;;0.00;;
64669;SDS011;51080;51.690;5.174;2022-07-03T14:33:41;0.00;;;0.00;;
64669;SDS011;51080;51.690;5.174;2022-07-03T14:40:01;0.00;;;0.00;;
64669;SDS011;51080;51.690;5.174;2022-07-03T14:46:30;0.00;;;0.00;;
64669;SDS011;51080;51.690;5.174;2022-07-03T14:53:05;0.00;;;0.00;;
64669;SDS011;51080;51.690;5.174;2022-07-03T14:59:44;0.00;;;0.00;;
64669;SDS011;51080;51.690;5.174;2022-07-03T15:05:54;0.00;;;0.00;;
64669;SDS011;51080;51.690;5.174;2022-07-03T15:12:13;0.00;;;0.00;;
64669;SDS011;51080;51.690;5.174;2022-07-03T15:18:31;0.00;;;0.00;;
64669;SDS011;51080;51.690;5.174;2022-07-03T15:24:50;0.00;;;0.00;;
64669;SDS011;51080;51.690;5.174;2022-07-03T15:31:09;0.00;;;0.00;;
64669;SDS011;51080;51.690;5.174;2022-07-03T15:44:07;0.00;;;0.00;;
64669;SDS011;51080;51.690;5.174;2022-07-03T15:57:19;0.00;;;0.00;;
64669;SDS011;51080;51.690;5.174;2022-07-03T16:03:47;0.00;;;0.00;;
64669;SDS011;51080;51.690;5.174;2022-07-03T16:10:10;0.00;;;0.00;;
64669;SDS011;51080;51.690;5.174;2022-07-03T16:16:25;0.00;;;0.00;;
64669;SDS011;51080;51.690;5.174;2022-07-03T16:22:40;0.00;;;0.00;;
64669;SDS011;51080;51.690;5.174;2022-07-03T16:28:54;0.00;;;0.00;;
64669;SDS011;51080;51.690;5.174;2022-07-03T16:35:26;0.00;;;0.00;;
64669;SDS011;51080;51.690;5.174;2022-07-03T16:41:44;0.00;;;0.00;;
64669;SDS011;51080;51.690;5.174;2022-07-03T16:48:05;0.00;;;0.00;;
64669;SDS011;51080;51.690;5.174;2022-07-03T16:54:25;0.00;;;0.00;;
64669;SDS011;51080;51.690;5.174;2022-07-03T17:00:40;0.00;;;0.00;;
64669;SDS011;51080;51.690;5.174;2022-07-03T17:06:56;0.00;;;0.00;;
64669;SDS011;51080;51.690;5.174;2022-07-03T17:13:10;0.00;;;0.00;;
64669;SDS011;51080;51.690;5.174;2022-07-03T17:19:25;0.00;;;0.00;;
64669;SDS011;51080;51.690;5.174;2022-07-03T17:25:41;0.00;;;0.00;;
64669;SDS011;51080;51.690;5.174;2022-07-03T17:31:58;0.00;;;0.00;;
64669;SDS011;51080;51.690;5.174;2022-07-03T17:38:16;0.00;;;0.00;;
64669;SDS011;51080;51.690;5.174;2022-07-03T17:44:33;0.00;;;0.00;;
64669;SDS011;51080;51.690;5.174;2022-07-03T17:50:55;0.00;;;0.00;;
64669;SDS011;51080;51.690;5.174;2022-07-03T17:57:13;0.00;;;0.00;;
64669;SDS011;51080;51.690;5.174;2022-07-03T18:03:32;0.00;;;0.00;;
64669;SDS011;51080;51.690;5.174;2022-07-03T18:09:49;0.00;;;0.00;;
64669;SDS011;51080;51.690;5.174;2022-07-03T18:16:10;0.00;;;0.00;;
64669;SDS011;51080;51.690;5.174;2022-07-03T18:22:27;0.00;;;0.00;;
64669;SDS011;51080;51.690;5.174;2022-07-03T18:28:42;0.00;;;0.00;;
64669;SDS011;51080;51.690;5.174;2022-07-03T18:35:01;0.00;;;0.00;;
64669;SDS011;51080;51.690;5.174;2022-07-03T18:41:20;0.00;;;0.00;;
64669;SDS011;51080;51.690;5.174;2022-07-03T18:47:41;0.00;;;0.00;;
64669;SDS011;51080;51.690;5.174;2022-07-03T19:00:33;0.00;;;0.00;;
64669;SDS011;51080;51.690;5.174;2022-07-03T19:06:55;0.00;;;0.00;;
64669;SDS011;51080;51.690;5.174;2022-07-03T19:13:20;0.00;;;0.00;;
64669;SDS011;51080;51.690;5.174;2022-07-03T19:19:42;0.00;;;0.00;;
64669;SDS011;51080;51.690;5.174;2022-07-03T19:25:59;0.00;;;0.00;;
64669;SDS011;51080;51.690;5.174;2022-07-03T19:32:17;0.00;;;0.00;;
64669;SDS011;51080;51.690;5.174;2022-07-03T19:38:34;0.00;;;0.00;;
64669;SDS011;51080;51.690;5.174;2022-07-03T19:44:53;0.00;;;0.00;;
64669;SDS011;51080;51.690;5.174;2022-07-03T19:51:16;0.00;;;0.00;;
64669;SDS011;51080;51.690;5.174;2022-07-03T19:57:35;0.00;;;0.00;;
64669;SDS011;51080;51.690;5.174;2022-07-03T20:03:55;0.00;;;0.00;;
64669;SDS011;51080;51.690;5.174;2022-07-03T20:10:12;0.00;;;0.00;;
64669;SDS011;51080;51.690;5.174;2022-07-03T20:16:29;0.00;;;0.00;;
64669;SDS011;51080;51.690;5.174;2022-07-03T20:22:46;0.00;;;0.00;;
64669;SDS011;51080;51.690;5.174;2022-07-03T20:29:01;0.00;;;0.00;;
64669;SDS011;51080;51.690;5.174;2022-07-03T20:35:16;0.00;;;0.00;;
64669;SDS011;51080;51.690;5.174;2022-07-03T20:41:30;0.00;;;0.00;;
64669;SDS011;51080;51.690;5.174;2022-07-03T20:47:45;0.00;;;0.00;;
64669;SDS011;51080;51.690;5.174;2022-07-03T20:53:59;0.00;;;0.00;;
64669;SDS011;51080;51.690;5.174;2022-07-03T21:00:14;0.00;;;0.00;;
64669;SDS011;51080;51.690;5.174;2022-07-03T21:06:32;0.00;;;0.00;;
64669;SDS011;51080;51.690;5.174;2022-07-03T21:12:47;0.00;;;0.00;;
64669;SDS011;51080;51.690;5.174;2022-07-03T21:19:02;0.00;;;0.00;;
64669;SDS011;51080;51.690;5.174;2022-07-03T21:25:22;0.00;;;0.00;;
64669;SDS011;51080;51.690;5.174;2022-07-03T21:31:36;0.00;;;0.00;;
64669;SDS011;51080;51.690;5.174;2022-07-03T21:37:50;0.00;;;0.00;;
64669;SDS011;51080;51.690;5.174;2022-07-03T21:44:09;0.00;;;0.00;;
64669;SDS011;51080;51.690;5.174;2022-07-03T21:50:28;0.00;;;0.00;;
64669;SDS011;51080;51.690;5.174;2022-07-03T21:56:48;0.00;;;0.00;;
64669;SDS011;51080;51.690;5.174;2022-07-03T22:03:06;0.00;;;0.00;;
64669;SDS011;51080;51.690;5.174;2022-07-03T22:09:26;0.00;;;0.00;;
64669;SDS011;51080;51.690;5.174;2022-07-03T22:15:42;0.00;;;0.00;;
64669;SDS011;51080;51.690;5.174;2022-07-03T22:22:01;0.00;;;0.00;;
64669;SDS011;51080;51.690;5.174;2022-07-03T22:28:16;0.00;;;0.00;;
64669;SDS011;51080;51.690;5.174;2022-07-03T22:34:35;0.00;;;0.00;;
64669;SDS011;51080;51.690;5.174;2022-07-03T22:40:49;0.00;;;0.00;;
64669;SDS011;51080;51.690;5.174;2022-07-03T22:47:05;0.00;;;0.00;;
64669;SDS011;51080;51.690;5.174;2022-07-03T22:53:24;0.00;;;0.00;;
64669;SDS011;51080;51.690;5.174;2022-07-03T22:59:42;0.00;;;0.00;;
64669;SDS011;51080;51.690;5.174;2022-07-03T23:05:56;0.00;;;0.00;;
64669;SDS011;51080;51.690;5.174;2022-07-03T23:12:15;0.00;;;0.00;;
64669;SDS011;51080;51.690;5.174;2022-07-03T23:18:31;0.00;;;0.00;;
64669;SDS011;51080;51.690;5.174;2022-07-03T23:24:46;0.00;;;0.00;;
64669;SDS011;51080;51.690;5.174;2022-07-03T23:31:05;0.00;;;0.00;;
64669;SDS011;51080;51.690;5.174;2022-07-03T23:37:18;0.00;;;0.00;;
64669;SDS011;51080;51.690;5.174;2022-07-03T23:43:35;0.00;;;0.00;;
64669;SDS011;51080;51.690;5.174;2022-07-03T23:49:53;0.00;;;0.00;;
64669;SDS011;51080;51.690;5.174;2022-07-03T23:56:13;0.00;;;0.00;;
